LOT6211 EPZG-EIKY
Flight info
| Callsign | LOT6211 |
|---|---|
| Flight time | N/A |
| Altitude | 24000 |
| Route | NEMAK |
| Aircraft | DH8D/M-SDE2E3FGRY/H |
Departure
| Time | N/A |
|---|---|
| Airport | Zielona Góra-Babimost Airport (EPZG) |
Arrival
| Time | 2026-04-21 19:36 |
|---|---|
| Airport | Kerry Airport (EIKY) |
| Time | Latitude | Longitude | Altitude | Speed | Heading |
|---|---|---|---|---|---|
| 2026-04-21 19:20 | 51.83083 | -8.72922 | 5190 ft | 288 kts | 328° |
| 2026-04-21 19:21 | 51.84577 | -8.75022 | 5175 ft | 287 kts | 311° |
| 2026-04-21 19:21 | 51.85512 | -8.77883 | 5221 ft | 290 kts | 295° |
| 2026-04-21 19:21 | 51.86288 | -8.80924 | 5223 ft | 289 kts | 293° |
| 2026-04-21 19:21 | 51.86990 | -8.83942 | 5222 ft | 289 kts | 291° |
| 2026-04-21 19:22 | 51.87689 | -8.86965 | 5218 ft | 285 kts | 291° |
| 2026-04-21 19:22 | 51.88365 | -8.89931 | 5221 ft | 280 kts | 291° |
| 2026-04-21 19:22 | 51.89025 | -8.92885 | 5222 ft | 276 kts | 290° |
| 2026-04-21 19:22 | 51.89669 | -8.95817 | 5214 ft | 273 kts | 290° |
| 2026-04-21 19:23 | 51.90298 | -8.98716 | 5210 ft | 270 kts | 290° |
| 2026-04-21 19:23 | 51.90908 | -9.01559 | 5211 ft | 268 kts | 290° |
| 2026-04-21 19:23 | 51.91518 | -9.04420 | 5208 ft | 266 kts | 290° |
| 2026-04-21 19:23 | 51.92117 | -9.07241 | 5206 ft | 266 kts | 290° |
| 2026-04-21 19:24 | 51.92710 | -9.10056 | 5206 ft | 265 kts | 290° |
| 2026-04-21 19:24 | 51.93308 | -9.12902 | 5206 ft | 265 kts | 290° |
| 2026-04-21 19:24 | 51.93898 | -9.15724 | 5201 ft | 265 kts | 289° |
| 2026-04-21 19:24 | 51.94484 | -9.18533 | 5199 ft | 265 kts | 289° |
| 2026-04-21 19:25 | 51.95072 | -9.21363 | 5197 ft | 264 kts | 289° |
| 2026-04-21 19:25 | 51.95653 | -9.24162 | 5196 ft | 264 kts | 289° |
| 2026-04-21 19:25 | 51.96237 | -9.26983 | 5201 ft | 264 kts | 289° |
| 2026-04-21 19:25 | 51.96825 | -9.29831 | 5198 ft | 264 kts | 289° |
| 2026-04-21 19:26 | 51.97402 | -9.32627 | 5198 ft | 263 kts | 289° |
| 2026-04-21 19:26 | 51.97980 | -9.35435 | 5197 ft | 263 kts | 289° |
| 2026-04-21 19:26 | 51.98557 | -9.38236 | 5189 ft | 263 kts | 289° |
| 2026-04-21 19:26 | 51.99140 | -9.41078 | 5188 ft | 263 kts | 289° |
| 2026-04-21 19:27 | 51.99730 | -9.43960 | 4133 ft | 297 kts | 290° |
| 2026-04-21 19:27 | 52.00364 | -9.47127 | 3685 ft | 288 kts | 289° |
| 2026-04-21 19:27 | 52.00905 | -9.50171 | 3385 ft | 279 kts | 287° |
| 2026-04-21 19:27 | 52.01511 | -9.53188 | 3249 ft | 278 kts | 291° |
| 2026-04-21 19:28 | 52.02135 | -9.56127 | 3209 ft | 274 kts | 291° |
| 2026-04-21 19:28 | 52.02747 | -9.59046 | 3186 ft | 272 kts | 291° |
| 2026-04-21 19:28 | 52.03347 | -9.61926 | 3184 ft | 270 kts | 290° |
| 2026-04-21 19:28 | 52.03931 | -9.64763 | 3195 ft | 264 kts | 290° |
| 2026-04-21 19:29 | 52.04507 | -9.67569 | 3171 ft | 260 kts | 290° |
| 2026-04-21 19:29 | 52.05074 | -9.70338 | 3171 ft | 257 kts | 289° |
| 2026-04-21 19:29 | 52.05625 | -9.73048 | 3169 ft | 248 kts | 289° |
| 2026-04-21 19:29 | 52.06136 | -9.75612 | 3182 ft | 226 kts | 289° |
| 2026-04-21 19:30 | 52.06643 | -9.77916 | 3156 ft | 208 kts | 303° |
| 2026-04-21 19:30 | 52.07596 | -9.79342 | 3190 ft | 177 kts | 354° |
| 2026-04-21 19:30 | 52.08728 | -9.80004 | 3227 ft | 176 kts | 355° |
| 2026-04-21 19:30 | 52.09934 | -9.80707 | 3029 ft | 190 kts | 354° |
| 2026-04-21 19:31 | 52.11220 | -9.81093 | 2707 ft | 178 kts | 23° |
| 2026-04-21 19:31 | 52.12026 | -9.80240 | 2532 ft | 125 kts | 71° |
| 2026-04-21 19:31 | 52.12323 | -9.79122 | 2439 ft | 117 kts | 75° |
| 2026-04-21 19:31 | 52.12623 | -9.77900 | 2343 ft | 116 kts | 75° |
| 2026-04-21 19:32 | 52.12913 | -9.76668 | 2245 ft | 117 kts | 76° |
| 2026-04-21 19:32 | 52.13192 | -9.75415 | 2141 ft | 120 kts | 76° |
| 2026-04-21 19:32 | 52.13482 | -9.74102 | 2039 ft | 123 kts | 76° |
| 2026-04-21 19:32 | 52.13773 | -9.72763 | 1938 ft | 129 kts | 76° |
| 2026-04-21 19:33 | 52.13966 | -9.71874 | 1849 ft | 126 kts | 75° |
| 2026-04-21 19:33 | 52.14351 | -9.70077 | 1706 ft | 126 kts | 75° |
| 2026-04-21 19:33 | 52.14642 | -9.68708 | 1594 ft | 130 kts | 75° |
| 2026-04-21 19:33 | 52.14939 | -9.67292 | 1480 ft | 135 kts | 75° |
| 2026-04-21 19:34 | 52.15247 | -9.65833 | 1329 ft | 131 kts | 75° |
| 2026-04-21 19:34 | 52.15544 | -9.64423 | 1353 ft | 133 kts | 76° |
| 2026-04-21 19:34 | 52.15852 | -9.63042 | 1179 ft | 132 kts | 72° |
| 2026-04-21 19:34 | 52.16169 | -9.61659 | 999 ft | 126 kts | 73° |
| 2026-04-21 19:35 | 52.16431 | -9.60301 | 777 ft | 128 kts | 75° |
| 2026-04-21 19:35 | 52.17017 | -9.57616 | 687 ft | 126 kts | 76° |
| 2026-04-21 19:35 | 52.17295 | -9.56236 | 505 ft | 127 kts | 75° |
| 2026-04-21 19:36 | 52.17566 | -9.54873 | 283 ft | 129 kts | 73° |
| 2026-04-21 19:36 | 52.17870 | -9.53477 | 102 ft | 127 kts | 75° |
| 2026-04-21 19:36 | 52.18102 | -9.52290 | 103 ft | 76 kts | 70° |
| 2026-04-21 19:36 | 52.18208 | -9.51803 | 114 ft | 17 kts | 73° |
| 2026-04-21 19:37 | 52.18231 | -9.51692 | 116 ft | 4 kts | 317° |
| 2026-04-21 19:37 | 52.18191 | -9.51884 | 112 ft | 32 kts | 250° |
| 2026-04-21 19:37 | 52.18117 | -9.52232 | 104 ft | 32 kts | 249° |
| 2026-04-21 19:37 | 52.18044 | -9.52579 | 98 ft | 31 kts | 251° |
| 2026-04-21 19:38 | 52.17977 | -9.52912 | 93 ft | 30 kts | 250° |
| 2026-04-21 19:38 | 52.17910 | -9.53225 | 90 ft | 28 kts | 251° |
| 2026-04-21 19:38 | 52.17866 | -9.53437 | 88 ft | 15 kts | 251° |
| 2026-04-21 19:38 | 52.17855 | -9.53542 | 87 ft | 7 kts | 310° |
| 2026-04-21 19:39 | 52.17915 | -9.53580 | 87 ft | 10 kts | 342° |
| 2026-04-21 19:39 | 52.17947 | -9.53597 | 87 ft | 0 kts | 342° |
| 2026-04-21 19:39 | 52.17970 | -9.53609 | 87 ft | 7 kts | 341° |
| 2026-04-21 19:39 | 52.18013 | -9.53638 | 87 ft | 10 kts | 338° |
| 2026-04-21 19:40 | 52.18078 | -9.53679 | 86 ft | 4 kts | 355° |
| 2026-04-21 19:40 | 52.18093 | -9.53661 | 86 ft | 1 kts | 79° |
| 2026-04-21 19:40 | 52.18090 | -9.53646 | 86 ft | 1 kts | 156° |
| 2026-04-21 19:40 | 52.18084 | -9.53647 | 86 ft | 0 kts | 187° |